sensor_id;sensor_type;location;lat;lon;timestamp;P1;durP1;ratioP1;P2;durP2;ratioP2
7495;SDS011;3789;47.064;15.482;2023-06-04T00:01:38;8.02;;;7.32;;
7495;SDS011;3789;47.064;15.482;2023-06-04T00:04:06;7.20;;;6.60;;
7495;SDS011;3789;47.064;15.482;2023-06-04T00:06:36;7.82;;;7.03;;
7495;SDS011;3789;47.064;15.482;2023-06-04T00:09:05;6.80;;;6.22;;
7495;SDS011;3789;47.064;15.482;2023-06-04T00:11:35;7.13;;;6.43;;
7495;SDS011;3789;47.064;15.482;2023-06-04T00:14:04;6.85;;;6.30;;
7495;SDS011;3789;47.064;15.482;2023-06-04T00:16:34;7.45;;;6.43;;
7495;SDS011;3789;47.064;15.482;2023-06-04T00:19:05;7.18;;;6.55;;
7495;SDS011;3789;47.064;15.482;2023-06-04T00:21:35;7.05;;;6.45;;
7495;SDS011;3789;47.064;15.482;2023-06-04T00:24:03;6.70;;;6.15;;
7495;SDS011;3789;47.064;15.482;2023-06-04T00:26:40;6.88;;;6.32;;
7495;SDS011;3789;47.064;15.482;2023-06-04T00:29:12;6.93;;;6.32;;
7495;SDS011;3789;47.064;15.482;2023-06-04T00:31:40;7.55;;;6.85;;
7495;SDS011;3789;47.064;15.482;2023-06-04T00:34:09;7.15;;;6.55;;
7495;SDS011;3789;47.064;15.482;2023-06-04T00:36:40;7.03;;;6.35;;
7495;SDS011;3789;47.064;15.482;2023-06-04T00:39:09;6.63;;;6.00;;
7495;SDS011;3789;47.064;15.482;2023-06-04T00:41:41;6.93;;;6.22;;
7495;SDS011;3789;47.064;15.482;2023-06-04T00:44:13;6.88;;;6.28;;
7495;SDS011;3789;47.064;15.482;2023-06-04T00:46:44;7.15;;;6.53;;
7495;SDS011;3789;47.064;15.482;2023-06-04T00:49:16;6.85;;;6.20;;
7495;SDS011;3789;47.064;15.482;2023-06-04T00:51:46;6.72;;;6.22;;
7495;SDS011;3789;47.064;15.482;2023-06-04T00:54:23;7.80;;;7.10;;
7495;SDS011;3789;47.064;15.482;2023-06-04T00:56:55;7.45;;;6.85;;
7495;SDS011;3789;47.064;15.482;2023-06-04T00:59:33;7.07;;;6.47;;
7495;SDS011;3789;47.064;15.482;2023-06-04T01:02:11;7.85;;;6.90;;
7495;SDS011;3789;47.064;15.482;2023-06-04T01:08:06;7.43;;;6.72;;
7495;SDS011;3789;47.064;15.482;2023-06-04T01:10:49;9.88;;;8.88;;
7495;SDS011;3789;47.064;15.482;2023-06-04T01:13:27;10.25;;;9.35;;
7495;SDS011;3789;47.064;15.482;2023-06-04T01:15:58;7.40;;;6.68;;
7495;SDS011;3789;47.064;15.482;2023-06-04T01:18:33;7.03;;;6.35;;
7495;SDS011;3789;47.064;15.482;2023-06-04T01:21:10;6.95;;;6.35;;
7495;SDS011;3789;47.064;15.482;2023-06-04T01:23:47;7.78;;;6.88;;
7495;SDS011;3789;47.064;15.482;2023-06-04T01:26:30;7.00;;;6.40;;
7495;SDS011;3789;47.064;15.482;2023-06-04T01:29:00;7.18;;;6.47;;
7495;SDS011;3789;47.064;15.482;2023-06-04T01:31:35;7.55;;;6.72;;
7495;SDS011;3789;47.064;15.482;2023-06-04T01:34:12;7.20;;;6.50;;
7495;SDS011;3789;47.064;15.482;2023-06-04T01:36:48;7.93;;;7.25;;
7495;SDS011;3789;47.064;15.482;2023-06-04T01:39:18;7.65;;;6.95;;
7495;SDS011;3789;47.064;15.482;2023-06-04T01:41:50;6.75;;;6.22;;
7495;SDS011;3789;47.064;15.482;2023-06-04T01:44:24;6.70;;;6.10;;
7495;SDS011;3789;47.064;15.482;2023-06-04T01:47:34;6.60;;;5.95;;
7495;SDS011;3789;47.064;15.482;2023-06-04T01:50:24;7.25;;;6.57;;
7495;SDS011;3789;47.064;15.482;2023-06-04T01:52:54;6.28;;;5.78;;
7495;SDS011;3789;47.064;15.482;2023-06-04T01:55:27;7.05;;;6.43;;
7495;SDS011;3789;47.064;15.482;2023-06-04T01:58:02;7.43;;;6.60;;
7495;SDS011;3789;47.064;15.482;2023-06-04T02:00:33;7.40;;;6.80;;
7495;SDS011;3789;47.064;15.482;2023-06-04T02:03:01;7.10;;;6.50;;
7495;SDS011;3789;47.064;15.482;2023-06-04T02:05:33;8.00;;;7.15;;
7495;SDS011;3789;47.064;15.482;2023-06-04T02:08:03;7.43;;;6.80;;
7495;SDS011;3789;47.064;15.482;2023-06-04T02:10:33;7.55;;;6.85;;
7495;SDS011;3789;47.064;15.482;2023-06-04T02:13:05;7.00;;;6.47;;
7495;SDS011;3789;47.064;15.482;2023-06-04T02:15:44;7.85;;;7.15;;
7495;SDS011;3789;47.064;15.482;2023-06-04T02:18:21;7.50;;;6.75;;
7495;SDS011;3789;47.064;15.482;2023-06-04T02:20:56;7.43;;;6.72;;
7495;SDS011;3789;47.064;15.482;2023-06-04T02:23:27;7.78;;;7.07;;
7495;SDS011;3789;47.064;15.482;2023-06-04T02:26:08;8.65;;;7.75;;
7495;SDS011;3789;47.064;15.482;2023-06-04T02:28:39;9.00;;;8.20;;
7495;SDS011;3789;47.064;15.482;2023-06-04T02:31:12;8.40;;;7.68;;
7495;SDS011;3789;47.064;15.482;2023-06-04T02:33:41;8.05;;;7.45;;
7495;SDS011;3789;47.064;15.482;2023-06-04T02:36:09;7.45;;;6.90;;
7495;SDS011;3789;47.064;15.482;2023-06-04T02:38:39;7.72;;;7.03;;
7495;SDS011;3789;47.064;15.482;2023-06-04T02:41:15;7.57;;;6.85;;
7495;SDS011;3789;47.064;15.482;2023-06-04T02:43:45;6.93;;;6.32;;
7495;SDS011;3789;47.064;15.482;2023-06-04T02:46:13;6.78;;;6.28;;
7495;SDS011;3789;47.064;15.482;2023-06-04T02:48:45;6.30;;;5.70;;
7495;SDS011;3789;47.064;15.482;2023-06-04T02:51:25;7.20;;;6.60;;
7495;SDS011;3789;47.064;15.482;2023-06-04T02:53:57;7.78;;;7.07;;
7495;SDS011;3789;47.064;15.482;2023-06-04T02:56:35;7.45;;;6.75;;
7495;SDS011;3789;47.064;15.482;2023-06-04T02:59:09;7.90;;;7.07;;
7495;SDS011;3789;47.064;15.482;2023-06-04T03:01:41;7.82;;;7.13;;
7495;SDS011;3789;47.064;15.482;2023-06-04T03:04:10;7.93;;;7.25;;
7495;SDS011;3789;47.064;15.482;2023-06-04T03:06:43;7.55;;;6.80;;
7495;SDS011;3789;47.064;15.482;2023-06-04T03:09:14;7.97;;;7.28;;
7495;SDS011;3789;47.064;15.482;2023-06-04T03:11:45;7.10;;;6.47;;
7495;SDS011;3789;47.064;15.482;2023-06-04T03:14:25;7.57;;;6.97;;
7495;SDS011;3789;47.064;15.482;2023-06-04T03:17:03;7.80;;;7.18;;
7495;SDS011;3789;47.064;15.482;2023-06-04T03:19:42;8.07;;;7.38;;
7495;SDS011;3789;47.064;15.482;2023-06-04T03:22:11;7.78;;;7.07;;
7495;SDS011;3789;47.064;15.482;2023-06-04T03:24:41;7.95;;;7.30;;
7495;SDS011;3789;47.064;15.482;2023-06-04T03:27:15;7.43;;;6.80;;
7495;SDS011;3789;47.064;15.482;2023-06-04T03:29:46;7.63;;;7.00;;
7495;SDS011;3789;47.064;15.482;2023-06-04T03:32:28;7.78;;;7.18;;
7495;SDS011;3789;47.064;15.482;2023-06-04T03:35:05;6.50;;;6.00;;
7495;SDS011;3789;47.064;15.482;2023-06-04T03:37:35;6.90;;;6.30;;
7495;SDS011;3789;47.064;15.482;2023-06-04T03:40:04;8.52;;;7.75;;
7495;SDS011;3789;47.064;15.482;2023-06-04T03:42:42;8.00;;;7.28;;
7495;SDS011;3789;47.064;15.482;2023-06-04T03:45:13;7.25;;;6.65;;
7495;SDS011;3789;47.064;15.482;2023-06-04T03:47:43;7.55;;;6.95;;
7495;SDS011;3789;47.064;15.482;2023-06-04T03:50:14;7.30;;;6.55;;
7495;SDS011;3789;47.064;15.482;2023-06-04T03:52:51;6.60;;;6.10;;
7495;SDS011;3789;47.064;15.482;2023-06-04T03:55:19;7.03;;;6.43;;
7495;SDS011;3789;47.064;15.482;2023-06-04T03:57:53;7.47;;;6.88;;
7495;SDS011;3789;47.064;15.482;2023-06-04T04:00:22;7.63;;;6.93;;
7495;SDS011;3789;47.064;15.482;2023-06-04T04:02:53;7.22;;;6.63;;
7495;SDS011;3789;47.064;15.482;2023-06-04T04:05:25;7.75;;;7.00;;
7495;SDS011;3789;47.064;15.482;2023-06-04T04:07:54;6.65;;;6.13;;
7495;SDS011;3789;47.064;15.482;2023-06-04T04:10:24;8.07;;;7.47;;
7495;SDS011;3789;47.064;15.482;2023-06-04T04:12:52;8.50;;;7.05;;
7495;SDS011;3789;47.064;15.482;2023-06-04T04:15:27;7.57;;;6.88;;
7495;SDS011;3789;47.064;15.482;2023-06-04T04:17:56;7.50;;;6.80;;
7495;SDS011;3789;47.064;15.482;2023-06-04T04:20:32;6.97;;;6.43;;
7495;SDS011;3789;47.064;15.482;2023-06-04T04:23:01;6.90;;;6.40;;
7495;SDS011;3789;47.064;15.482;2023-06-04T04:25:30;7.85;;;7.05;;
7495;SDS011;3789;47.064;15.482;2023-06-04T04:28:00;7.53;;;6.93;;
7495;SDS011;3789;47.064;15.482;2023-06-04T04:30:30;7.88;;;7.18;;
7495;SDS011;3789;47.064;15.482;2023-06-04T04:33:07;7.40;;;6.70;;
7495;SDS011;3789;47.064;15.482;2023-06-04T04:35:38;7.13;;;6.53;;
7495;SDS011;3789;47.064;15.482;2023-06-04T04:38:09;7.75;;;7.15;;
7495;SDS011;3789;47.064;15.482;2023-06-04T04:40:40;8.00;;;7.30;;
7495;SDS011;3789;47.064;15.482;2023-06-04T04:43:10;8.00;;;7.30;;
7495;SDS011;3789;47.064;15.482;2023-06-04T04:45:39;8.65;;;7.93;;
7495;SDS011;3789;47.064;15.482;2023-06-04T04:48:08;8.40;;;7.68;;
7495;SDS011;3789;47.064;15.482;2023-06-04T04:50:39;8.82;;;8.02;;
7495;SDS011;3789;47.064;15.482;2023-06-04T04:53:07;8.55;;;7.85;;
7495;SDS011;3789;47.064;15.482;2023-06-04T04:55:36;8.63;;;7.82;;
7495;SDS011;3789;47.064;15.482;2023-06-04T04:58:08;8.52;;;7.68;;
7495;SDS011;3789;47.064;15.482;2023-06-04T05:00:46;8.15;;;7.55;;
7495;SDS011;3789;47.064;15.482;2023-06-04T05:03:19;7.78;;;7.18;;
7495;SDS011;3789;47.064;15.482;2023-06-04T05:05:54;7.63;;;7.03;;
7495;SDS011;3789;47.064;15.482;2023-06-04T05:08:23;7.82;;;7.15;;
7495;SDS011;3789;47.064;15.482;2023-06-04T05:10:54;7.63;;;6.93;;
7495;SDS011;3789;47.064;15.482;2023-06-04T05:13:33;7.78;;;7.07;;
7495;SDS011;3789;47.064;15.482;2023-06-04T05:16:05;7.65;;;6.95;;
7495;SDS011;3789;47.064;15.482;2023-06-04T05:18:38;8.45;;;6.70;;
7495;SDS011;3789;47.064;15.482;2023-06-04T05:21:11;8.00;;;7.30;;
7495;SDS011;3789;47.064;15.482;2023-06-04T05:23:42;7.40;;;6.80;;
7495;SDS011;3789;47.064;15.482;2023-06-04T05:26:15;7.53;;;6.93;;
7495;SDS011;3789;47.064;15.482;2023-06-04T05:28:55;7.70;;;7.05;;
7495;SDS011;3789;47.064;15.482;2023-06-04T05:31:26;7.78;;;7.15;;
7495;SDS011;3789;47.064;15.482;2023-06-04T05:33:56;7.75;;;6.60;;
7495;SDS011;3789;47.064;15.482;2023-06-04T05:36:24;6.95;;;6.35;;
7495;SDS011;3789;47.064;15.482;2023-06-04T05:38:58;7.30;;;6.75;;
7495;SDS011;3789;47.064;15.482;2023-06-04T05:41:29;7.53;;;6.82;;
7495;SDS011;3789;47.064;15.482;2023-06-04T05:43:57;7.13;;;6.47;;
7495;SDS011;3789;47.064;15.482;2023-06-04T05:46:27;7.43;;;6.78;;
7495;SDS011;3789;47.064;15.482;2023-06-04T05:48:57;7.45;;;6.85;;
7495;SDS011;3789;47.064;15.482;2023-06-04T05:51:35;7.32;;;6.50;;
7495;SDS011;3789;47.064;15.482;2023-06-04T05:54:18;7.65;;;6.90;;
7495;SDS011;3789;47.064;15.482;2023-06-04T05:56:47;7.63;;;6.93;;
7495;SDS011;3789;47.064;15.482;2023-06-04T05:59:18;6.53;;;5.97;;
7495;SDS011;3789;47.064;15.482;2023-06-04T06:01:48;6.80;;;6.30;;
7495;SDS011;3789;47.064;15.482;2023-06-04T06:04:18;6.63;;;6.03;;
7495;SDS011;3789;47.064;15.482;2023-06-04T06:06:47;6.97;;;6.40;;
7495;SDS011;3789;47.064;15.482;2023-06-04T06:09:25;6.70;;;6.20;;
7495;SDS011;3789;47.064;15.482;2023-06-04T06:11:54;6.70;;;6.20;;
7495;SDS011;3789;47.064;15.482;2023-06-04T06:14:32;6.65;;;6.07;;
7495;SDS011;3789;47.064;15.482;2023-06-04T06:17:05;7.03;;;6.43;;
7495;SDS011;3789;47.064;15.482;2023-06-04T06:19:38;7.20;;;6.55;;
7495;SDS011;3789;47.064;15.482;2023-06-04T06:22:08;7.70;;;7.00;;
7495;SDS011;3789;47.064;15.482;2023-06-04T06:24:40;7.30;;;6.70;;
7495;SDS011;3789;47.064;15.482;2023-06-04T06:27:15;7.82;;;6.72;;
7495;SDS011;3789;47.064;15.482;2023-06-04T06:29:47;7.55;;;6.93;;
7495;SDS011;3789;47.064;15.482;2023-06-04T06:32:15;6.50;;;6.00;;
7495;SDS011;3789;47.064;15.482;2023-06-04T06:34:51;7.65;;;6.97;;
7495;SDS011;3789;47.064;15.482;2023-06-04T06:37:23;7.28;;;6.68;;
7495;SDS011;3789;47.064;15.482;2023-06-04T06:39:54;7.88;;;7.13;;
7495;SDS011;3789;47.064;15.482;2023-06-04T06:42:31;7.50;;;6.45;;
7495;SDS011;3789;47.064;15.482;2023-06-04T06:45:02;7.80;;;7.07;;
7495;SDS011;3789;47.064;15.482;2023-06-04T06:47:34;6.95;;;6.35;;
7495;SDS011;3789;47.064;15.482;2023-06-04T06:50:05;7.80;;;7.10;;
7495;SDS011;3789;47.064;15.482;2023-06-04T06:52:45;6.72;;;6.00;;
7495;SDS011;3789;47.064;15.482;2023-06-04T06:55:15;6.82;;;6.22;;
7495;SDS011;3789;47.064;15.482;2023-06-04T06:57:46;6.78;;;6.18;;
7495;SDS011;3789;47.064;15.482;2023-06-04T07:00:16;6.80;;;6.10;;
7495;SDS011;3789;47.064;15.482;2023-06-04T07:02:47;6.53;;;5.93;;
7495;SDS011;3789;47.064;15.482;2023-06-04T07:05:15;6.10;;;5.60;;
7495;SDS011;3789;47.064;15.482;2023-06-04T07:07:46;6.85;;;6.15;;
7495;SDS011;3789;47.064;15.482;2023-06-04T07:10:15;6.30;;;5.80;;
7495;SDS011;3789;47.064;15.482;2023-06-04T07:12:45;5.85;;;5.43;;
7495;SDS011;3789;47.064;15.482;2023-06-04T07:15:20;6.10;;;5.50;;
7495;SDS011;3789;47.064;15.482;2023-06-04T07:17:51;6.15;;;5.60;;
7495;SDS011;3789;47.064;15.482;2023-06-04T07:20:21;5.72;;;5.32;;
7495;SDS011;3789;47.064;15.482;2023-06-04T07:22:59;6.00;;;5.50;;
7495;SDS011;3789;47.064;15.482;2023-06-04T07:25:37;6.57;;;5.95;;
7495;SDS011;3789;47.064;15.482;2023-06-04T07:28:05;6.80;;;6.20;;
7495;SDS011;3789;47.064;15.482;2023-06-04T07:30:35;6.75;;;6.03;;
7495;SDS011;3789;47.064;15.482;2023-06-04T07:33:04;7.07;;;6.38;;
7495;SDS011;3789;47.064;15.482;2023-06-04T07:35:36;7.00;;;6.40;;
7495;SDS011;3789;47.064;15.482;2023-06-04T07:38:05;6.82;;;6.22;;
7495;SDS011;3789;47.064;15.482;2023-06-04T07:40:34;6.28;;;5.78;;
7495;SDS011;3789;47.064;15.482;2023-06-04T07:43:03;6.38;;;5.88;;
7495;SDS011;3789;47.064;15.482;2023-06-04T07:45:34;6.88;;;5.53;;
7495;SDS011;3789;47.064;15.482;2023-06-04T07:48:03;6.53;;;5.93;;
7495;SDS011;3789;47.064;15.482;2023-06-04T07:50:35;5.78;;;5.30;;
7495;SDS011;3789;47.064;15.482;2023-06-04T07:53:08;6.18;;;5.57;;
7495;SDS011;3789;47.064;15.482;2023-06-04T07:55:41;6.35;;;5.78;;
7495;SDS011;3789;47.064;15.482;2023-06-04T07:58:09;6.05;;;5.50;;
7495;SDS011;3789;47.064;15.482;2023-06-04T08:00:41;6.57;;;5.93;;
7495;SDS011;3789;47.064;15.482;2023-06-04T08:03:11;6.22;;;5.53;;
7495;SDS011;3789;47.064;15.482;2023-06-04T08:05:42;6.35;;;5.68;;
7495;SDS011;3789;47.064;15.482;2023-06-04T08:08:10;6.78;;;6.05;;
7495;SDS011;3789;47.064;15.482;2023-06-04T08:10:41;5.95;;;5.53;;
7495;SDS011;3789;47.064;15.482;2023-06-04T08:13:11;6.32;;;5.60;;
7495;SDS011;3789;47.064;15.482;2023-06-04T08:15:49;5.78;;;5.28;;
7495;SDS011;3789;47.064;15.482;2023-06-04T08:18:18;6.63;;;6.05;;
7495;SDS011;3789;47.064;15.482;2023-06-04T08:20:47;5.95;;;5.45;;
7495;SDS011;3789;47.064;15.482;2023-06-04T08:23:15;6.40;;;5.88;;
7495;SDS011;3789;47.064;15.482;2023-06-04T08:25:45;6.13;;;5.63;;
7495;SDS011;3789;47.064;15.482;2023-06-04T08:28:15;6.20;;;5.70;;
7495;SDS011;3789;47.064;15.482;2023-06-04T08:30:46;6.45;;;5.85;;
7495;SDS011;3789;47.064;15.482;2023-06-04T08:33:23;6.05;;;5.45;;
7495;SDS011;3789;47.064;15.482;2023-06-04T08:36:01;6.65;;;6.05;;
7495;SDS011;3789;47.064;15.482;2023-06-04T08:38:39;6.63;;;5.63;;
7495;SDS011;3789;47.064;15.482;2023-06-04T08:44:17;6.85;;;6.18;;
7495;SDS011;3789;47.064;15.482;2023-06-04T08:46:51;6.20;;;5.70;;
7495;SDS011;3789;47.064;15.482;2023-06-04T08:49:28;7.03;;;6.35;;
7495;SDS011;3789;47.064;15.482;2023-06-04T08:52:11;6.75;;;6.15;;
7495;SDS011;3789;47.064;15.482;2023-06-04T08:54:42;6.60;;;6.07;;
7495;SDS011;3789;47.064;15.482;2023-06-04T08:57:11;6.55;;;5.95;;
7495;SDS011;3789;47.064;15.482;2023-06-04T08:59:41;6.47;;;5.78;;
7495;SDS011;3789;47.064;15.482;2023-06-04T09:02:17;6.20;;;5.70;;
7495;SDS011;3789;47.064;15.482;2023-06-04T09:04:50;6.32;;;5.80;;
7495;SDS011;3789;47.064;15.482;2023-06-04T09:07:18;5.90;;;5.50;;
7495;SDS011;3789;47.064;15.482;2023-06-04T09:09:47;6.40;;;5.80;;
7495;SDS011;3789;47.064;15.482;2023-06-04T09:12:30;7.15;;;5.85;;
7495;SDS011;3789;47.064;15.482;2023-06-04T09:15:03;6.75;;;5.90;;
7495;SDS011;3789;47.064;15.482;2023-06-04T09:17:33;6.18;;;5.68;;
7495;SDS011;3789;47.064;15.482;2023-06-04T09:20:21;6.15;;;5.55;;
7495;SDS011;3789;47.064;15.482;2023-06-04T09:23:00;5.68;;;5.10;;
7495;SDS011;3789;47.064;15.482;2023-06-04T09:25:52;6.18;;;5.65;;
7495;SDS011;3789;47.064;15.482;2023-06-04T09:28:22;5.93;;;5.32;;
7495;SDS011;3789;47.064;15.482;2023-06-04T09:31:01;6.60;;;5.82;;
7495;SDS011;3789;47.064;15.482;2023-06-04T09:33:29;5.85;;;5.35;;
7495;SDS011;3789;47.064;15.482;2023-06-04T09:36:09;5.97;;;5.47;;
7495;SDS011;3789;47.064;15.482;2023-06-04T09:38:41;6.78;;;6.15;;
7495;SDS011;3789;47.064;15.482;2023-06-04T09:41:18;6.25;;;5.75;;
7495;SDS011;3789;47.064;15.482;2023-06-04T09:44:01;6.93;;;6.22;;
7495;SDS011;3789;47.064;15.482;2023-06-04T09:46:34;6.63;;;6.13;;
7495;SDS011;3789;47.064;15.482;2023-06-04T09:49:04;6.85;;;6.00;;
7495;SDS011;3789;47.064;15.482;2023-06-04T09:51:33;7.20;;;6.47;;
7495;SDS011;3789;47.064;15.482;2023-06-04T09:54:08;6.90;;;5.88;;
7495;SDS011;3789;47.064;15.482;2023-06-04T09:56:44;5.90;;;5.40;;
7495;SDS011;3789;47.064;15.482;2023-06-04T09:59:15;6.95;;;6.22;;
7495;SDS011;3789;47.064;15.482;2023-06-04T10:01:45;5.95;;;5.35;;
7495;SDS011;3789;47.064;15.482;2023-06-04T10:04:15;7.10;;;6.40;;
7495;SDS011;3789;47.064;15.482;2023-06-04T10:06:49;7.00;;;6.28;;
7495;SDS011;3789;47.064;15.482;2023-06-04T10:09:21;6.72;;;6.22;;
7495;SDS011;3789;47.064;15.482;2023-06-04T10:11:56;6.35;;;5.75;;
7495;SDS011;3789;47.064;15.482;2023-06-04T10:14:37;7.20;;;6.30;;
7495;SDS011;3789;47.064;15.482;2023-06-04T10:17:20;6.85;;;6.25;;
7495;SDS011;3789;47.064;15.482;2023-06-04T10:19:56;6.95;;;6.30;;
7495;SDS011;3789;47.064;15.482;2023-06-04T10:22:26;7.07;;;6.47;;
7495;SDS011;3789;47.064;15.482;2023-06-04T10:25:00;7.05;;;6.35;;
7495;SDS011;3789;47.064;15.482;2023-06-04T10:27:33;6.85;;;6.25;;
7495;SDS011;3789;47.064;15.482;2023-06-04T10:30:04;7.10;;;6.43;;
7495;SDS011;3789;47.064;15.482;2023-06-04T10:32:34;6.90;;;6.30;;
7495;SDS011;3789;47.064;15.482;2023-06-04T10:35:06;7.10;;;6.55;;
7495;SDS011;3789;47.064;15.482;2023-06-04T10:37:35;8.02;;;7.22;;
7495;SDS011;3789;47.064;15.482;2023-06-04T10:40:12;7.78;;;7.07;;
7495;SDS011;3789;47.064;15.482;2023-06-04T10:42:44;6.97;;;6.18;;
7495;SDS011;3789;47.064;15.482;2023-06-04T10:45:14;7.32;;;6.53;;
7495;SDS011;3789;47.064;15.482;2023-06-04T10:47:43;6.40;;;5.85;;
7495;SDS011;3789;47.064;15.482;2023-06-04T10:50:13;6.85;;;6.35;;
7495;SDS011;3789;47.064;15.482;2023-06-04T10:52:53;7.00;;;6.40;;
7495;SDS011;3789;47.064;15.482;2023-06-04T10:55:25;6.72;;;6.22;;
7495;SDS011;3789;47.064;15.482;2023-06-04T10:58:01;6.65;;;6.13;;
7495;SDS011;3789;47.064;15.482;2023-06-04T11:00:38;6.60;;;6.00;;
7495;SDS011;3789;47.064;15.482;2023-06-04T11:03:19;7.25;;;6.53;;
7495;SDS011;3789;47.064;15.482;2023-06-04T11:05:49;6.72;;;6.05;;
7495;SDS011;3789;47.064;15.482;2023-06-04T11:08:28;6.68;;;5.95;;
7495;SDS011;3789;47.064;15.482;2023-06-04T11:10:58;6.38;;;5.75;;
7495;SDS011;3789;47.064;15.482;2023-06-04T11:13:38;6.93;;;6.38;;
7495;SDS011;3789;47.064;15.482;2023-06-04T11:16:19;6.22;;;5.72;;
7495;SDS011;3789;47.064;15.482;2023-06-04T11:18:56;7.38;;;6.78;;
7495;SDS011;3789;47.064;15.482;2023-06-04T11:21:27;6.72;;;6.13;;
7495;SDS011;3789;47.064;15.482;2023-06-04T11:23:58;6.50;;;6.00;;
7495;SDS011;3789;47.064;15.482;2023-06-04T11:26:35;7.07;;;6.53;;
7495;SDS011;3789;47.064;15.482;2023-06-04T11:29:13;7.47;;;6.88;;
7495;SDS011;3789;47.064;15.482;2023-06-04T11:31:47;6.72;;;6.22;;
7495;SDS011;3789;47.064;15.482;2023-06-04T11:34:23;7.20;;;6.60;;
7495;SDS011;3789;47.064;15.482;2023-06-04T11:37:09;7.30;;;6.60;;
7495;SDS011;3789;47.064;15.482;2023-06-04T11:39:41;7.35;;;6.55;;
7495;SDS011;3789;47.064;15.482;2023-06-04T11:42:13;7.95;;;6.93;;
7495;SDS011;3789;47.064;15.482;2023-06-04T11:44:55;7.47;;;6.78;;
7495;SDS011;3789;47.064;15.482;2023-06-04T11:47:27;7.45;;;6.80;;
7495;SDS011;3789;47.064;15.482;2023-06-04T11:50:06;6.45;;;5.97;;
7495;SDS011;3789;47.064;15.482;2023-06-04T11:52:39;7.53;;;6.43;;
7495;SDS011;3789;47.064;15.482;2023-06-04T11:55:10;8.43;;;7.30;;
7495;SDS011;3789;47.064;15.482;2023-06-04T11:57:43;8.25;;;7.63;;
7495;SDS011;3789;47.064;15.482;2023-06-04T12:00:27;7.40;;;6.80;;
7495;SDS011;3789;47.064;15.482;2023-06-04T12:03:00;7.53;;;6.90;;
7495;SDS011;3789;47.064;15.482;2023-06-04T12:05:36;7.78;;;7.13;;
7495;SDS011;3789;47.064;15.482;2023-06-04T12:08:12;7.43;;;6.85;;
7495;SDS011;3789;47.064;15.482;2023-06-04T12:10:43;7.55;;;6.95;;
7495;SDS011;3789;47.064;15.482;2023-06-04T12:13:14;7.88;;;7.15;;
7495;SDS011;3789;47.064;15.482;2023-06-04T12:15:50;8.48;;;7.78;;
7495;SDS011;3789;47.064;15.482;2023-06-04T12:18:26;8.40;;;7.68;;
7495;SDS011;3789;47.064;15.482;2023-06-04T12:20:57;8.63;;;7.72;;
7495;SDS011;3789;47.064;15.482;2023-06-04T12:23:27;8.23;;;7.53;;
7495;SDS011;3789;47.064;15.482;2023-06-04T12:25:58;8.77;;;7.97;;
7495;SDS011;3789;47.064;15.482;2023-06-04T12:28:30;7.95;;;7.20;;
7495;SDS011;3789;47.064;15.482;2023-06-04T12:31:17;7.95;;;7.25;;
7495;SDS011;3789;47.064;15.482;2023-06-04T12:33:50;8.38;;;7.57;;
7495;SDS011;3789;47.064;15.482;2023-06-04T12:36:19;8.00;;;7.30;;
7495;SDS011;3789;47.064;15.482;2023-06-04T12:38:49;7.57;;;6.88;;
7495;SDS011;3789;47.064;15.482;2023-06-04T12:41:20;7.68;;;6.97;;
7495;SDS011;3789;47.064;15.482;2023-06-04T12:43:57;8.00;;;7.30;;
7495;SDS011;3789;47.064;15.482;2023-06-04T12:46:36;8.15;;;7.32;;
7495;SDS011;3789;47.064;15.482;2023-06-04T12:49:05;8.05;;;7.45;;
7495;SDS011;3789;47.064;15.482;2023-06-04T12:51:35;8.40;;;7.65;;
7495;SDS011;3789;47.064;15.482;2023-06-04T12:54:06;8.15;;;7.35;;
7495;SDS011;3789;47.064;15.482;2023-06-04T12:56:46;8.40;;;7.47;;
7495;SDS011;3789;47.064;15.482;2023-06-04T12:59:28;8.88;;;8.07;;
7495;SDS011;3789;47.064;15.482;2023-06-04T13:01:59;8.43;;;7.63;;
7495;SDS011;3789;47.064;15.482;2023-06-04T13:04:36;8.65;;;7.78;;
7495;SDS011;3789;47.064;15.482;2023-06-04T13:07:15;8.45;;;7.65;;
7495;SDS011;3789;47.064;15.482;2023-06-04T13:09:46;8.25;;;7.55;;
7495;SDS011;3789;47.064;15.482;2023-06-04T13:12:26;8.20;;;7.60;;
7495;SDS011;3789;47.064;15.482;2023-06-04T13:14:56;9.07;;;8.27;;
7495;SDS011;3789;47.064;15.482;2023-06-04T13:17:25;9.38;;;8.50;;
7495;SDS011;3789;47.064;15.482;2023-06-04T13:19:57;8.50;;;7.80;;
7495;SDS011;3789;47.064;15.482;2023-06-04T13:22:31;9.07;;;8.18;;
7495;SDS011;3789;47.064;15.482;2023-06-04T13:25:05;8.90;;;8.07;;
7495;SDS011;3789;47.064;15.482;2023-06-04T13:27:44;8.82;;;8.13;;
7495;SDS011;3789;47.064;15.482;2023-06-04T13:30:17;8.27;;;7.47;;
7495;SDS011;3789;47.064;15.482;2023-06-04T13:32:47;8.52;;;7.80;;
7495;SDS011;3789;47.064;15.482;2023-06-04T13:35:27;9.48;;;8.68;;
7495;SDS011;3789;47.064;15.482;2023-06-04T13:38:07;9.02;;;8.23;;
7495;SDS011;3789;47.064;15.482;2023-06-04T13:40:36;8.90;;;8.15;;
7495;SDS011;3789;47.064;15.482;2023-06-04T13:43:08;8.98;;;8.18;;
7495;SDS011;3789;47.064;15.482;2023-06-04T13:45:46;9.63;;;8.82;;
7495;SDS011;3789;47.064;15.482;2023-06-04T13:48:21;9.43;;;8.73;;
7495;SDS011;3789;47.064;15.482;2023-06-04T13:50:59;9.07;;;8.38;;
7495;SDS011;3789;47.064;15.482;2023-06-04T13:53:32;9.55;;;8.77;;
7495;SDS011;3789;47.064;15.482;2023-06-04T13:56:06;9.38;;;8.68;;
7495;SDS011;3789;47.064;15.482;2023-06-04T13:58:42;10.85;;;9.90;;
7495;SDS011;3789;47.064;15.482;2023-06-04T14:01:22;11.98;;;10.95;;
7495;SDS011;3789;47.064;15.482;2023-06-04T14:04:03;11.25;;;10.27;;
7495;SDS011;3789;47.064;15.482;2023-06-04T14:06:34;11.48;;;10.48;;
7495;SDS011;3789;47.064;15.482;2023-06-04T14:09:11;11.63;;;10.73;;
7495;SDS011;3789;47.064;15.482;2023-06-04T14:11:40;10.65;;;9.85;;
7495;SDS011;3789;47.064;15.482;2023-06-04T14:14:16;11.63;;;10.82;;
7495;SDS011;3789;47.064;15.482;2023-06-04T14:16:53;12.55;;;11.55;;
7495;SDS011;3789;47.064;15.482;2023-06-04T14:19:24;13.80;;;12.48;;
7495;SDS011;3789;47.064;15.482;2023-06-04T14:21:55;14.13;;;12.77;;
7495;SDS011;3789;47.064;15.482;2023-06-04T14:24:25;14.00;;;12.70;;
7495;SDS011;3789;47.064;15.482;2023-06-04T14:26:57;12.98;;;11.68;;
7495;SDS011;3789;47.064;15.482;2023-06-04T14:29:37;9.90;;;9.02;;
7495;SDS011;3789;47.064;15.482;2023-06-04T14:32:08;9.13;;;8.43;;
7495;SDS011;3789;47.064;15.482;2023-06-04T14:34:39;7.38;;;6.68;;
7495;SDS011;3789;47.064;15.482;2023-06-04T14:37:08;7.10;;;6.50;;
7495;SDS011;3789;47.064;15.482;2023-06-04T14:39:37;6.90;;;6.28;;
7495;SDS011;3789;47.064;15.482;2023-06-04T14:42:06;5.47;;;5.03;;
7495;SDS011;3789;47.064;15.482;2023-06-04T14:44:34;4.90;;;4.60;;
7495;SDS011;3789;47.064;15.482;2023-06-04T14:47:12;6.28;;;5.78;;
7495;SDS011;3789;47.064;15.482;2023-06-04T14:49:42;6.13;;;5.53;;
7495;SDS011;3789;47.064;15.482;2023-06-04T14:52:12;5.38;;;4.97;;
7495;SDS011;3789;47.064;15.482;2023-06-04T14:54:42;5.63;;;5.22;;
7495;SDS011;3789;47.064;15.482;2023-06-04T14:57:14;5.53;;;5.13;;
7495;SDS011;3789;47.064;15.482;2023-06-04T14:59:47;6.00;;;5.50;;
7495;SDS011;3789;47.064;15.482;2023-06-04T15:02:19;6.03;;;5.50;;
7495;SDS011;3789;47.064;15.482;2023-06-04T15:04:49;5.22;;;4.82;;
7495;SDS011;3789;47.064;15.482;2023-06-04T15:07:26;5.13;;;4.57;;
7495;SDS011;3789;47.064;15.482;2023-06-04T15:09:58;5.50;;;5.00;;
7495;SDS011;3789;47.064;15.482;2023-06-04T15:12:29;5.88;;;5.38;;
7495;SDS011;3789;47.064;15.482;2023-06-04T15:15:00;7.32;;;6.47;;
7495;SDS011;3789;47.064;15.482;2023-06-04T15:17:36;7.38;;;6.68;;
7495;SDS011;3789;47.064;15.482;2023-06-04T15:20:16;5.88;;;5.32;;
7495;SDS011;3789;47.064;15.482;2023-06-04T15:22:46;5.95;;;5.43;;
7495;SDS011;3789;47.064;15.482;2023-06-04T15:25:22;5.00;;;4.60;;
7495;SDS011;3789;47.064;15.482;2023-06-04T15:27:58;5.25;;;4.82;;
7495;SDS011;3789;47.064;15.482;2023-06-04T15:30:31;4.93;;;4.53;;
7495;SDS011;3789;47.064;15.482;2023-06-04T15:33:01;5.10;;;4.70;;
7495;SDS011;3789;47.064;15.482;2023-06-04T15:35:32;4.32;;;3.92;;
7495;SDS011;3789;47.064;15.482;2023-06-04T15:38:04;4.30;;;3.90;;
7495;SDS011;3789;47.064;15.482;2023-06-04T15:40:34;4.55;;;4.25;;
7495;SDS011;3789;47.064;15.482;2023-06-04T15:43:04;4.60;;;4.30;;